createdAt,value
2024-04-18T00:01:56.349Z,87.92
2024-04-18T00:04:26.187Z,88.06
2024-04-18T00:06:57.918Z,88.11
2024-04-18T00:09:24.558Z,88.00
2024-04-18T00:11:56.174Z,88.00
2024-04-18T00:14:22.796Z,88.03
2024-04-18T00:16:51.786Z,88.16
2024-04-18T00:19:21.632Z,87.93
2024-04-18T00:21:48.330Z,88.21
2024-04-18T00:24:14.996Z,88.45
2024-04-18T00:26:43.891Z,88.15
2024-04-18T00:29:10.492Z,88.08
2024-04-18T00:31:37.146Z,88.42
2024-04-18T00:34:03.818Z,88.49
2024-04-18T00:36:32.721Z,88.58
2024-04-18T00:39:01.599Z,88.63
2024-04-18T00:41:28.314Z,88.56
2024-04-18T00:43:58.907Z,88.63
2024-04-18T00:46:28.473Z,88.45
2024-04-18T00:48:58.944Z,88.77
2024-04-18T00:51:28.318Z,88.71
2024-04-18T00:54:00.416Z,88.81
2024-04-18T00:56:27.286Z,88.72
2024-04-18T00:58:54.163Z,88.80
2024-04-18T01:01:22.598Z,88.79
2024-04-18T01:03:50.561Z,88.73
2024-04-18T01:06:19.475Z,88.83
2024-04-18T01:08:46.138Z,89.31
2024-04-18T01:11:12.823Z,88.74
2024-04-18T01:13:39.741Z,89.18
2024-04-18T01:16:06.743Z,89.07
2024-04-18T01:18:33.580Z,89.10
2024-04-18T01:21:00.605Z,89.31
2024-04-18T01:23:30.776Z,89.26
2024-04-18T01:25:59.877Z,89.15
2024-04-18T01:28:26.499Z,89.25
2024-04-18T01:30:53.204Z,89.17
2024-04-18T01:33:20.630Z,89.25
2024-04-18T01:35:49.272Z,89.27
2024-04-18T01:38:15.847Z,89.17
2024-04-18T01:40:42.549Z,89.41
2024-04-18T01:43:11.539Z,89.33
2024-04-18T01:45:38.153Z,89.05
2024-04-18T01:48:05.422Z,89.27
2024-04-18T01:50:34.361Z,89.00
2024-04-18T01:53:03.277Z,89.16
2024-04-18T01:55:29.942Z,88.74
2024-04-18T01:58:01.132Z,88.96
2024-04-18T02:00:27.779Z,89.02
2024-04-18T02:02:57.561Z,89.31
2024-04-18T02:05:28.723Z,89.41
2024-04-18T02:07:55.346Z,89.44
2024-04-18T02:10:22.161Z,89.35
2024-04-18T02:12:48.842Z,89.40
2024-04-18T02:15:15.637Z,89.16
2024-04-18T02:17:42.407Z,89.59
2024-04-18T02:20:09.831Z,89.52
2024-04-18T02:22:36.452Z,89.27
2024-04-18T02:25:10.637Z,89.40
2024-04-18T02:27:45.777Z,89.37
2024-04-18T02:30:12.978Z,89.82
2024-04-18T02:32:40.229Z,89.77
2024-04-18T02:35:07.122Z,89.61
2024-04-18T02:37:33.798Z,89.73
2024-04-18T02:40:05.290Z,89.79
2024-04-18T02:42:32.075Z,89.88
2024-04-18T02:45:01.446Z,89.68
2024-04-18T02:47:28.803Z,89.86
2024-04-18T02:49:55.454Z,89.63
2024-04-18T02:52:22.105Z,89.84
2024-04-18T02:54:53.379Z,89.68
2024-04-18T02:57:20.039Z,89.36
2024-04-18T02:59:48.905Z,89.78
2024-04-18T03:02:17.752Z,89.41
2024-04-18T03:04:46.752Z,89.72
2024-04-18T03:07:13.425Z,89.68
2024-04-18T03:09:42.269Z,89.71
2024-04-18T03:12:09.154Z,89.51
2024-04-18T03:14:35.766Z,89.49
2024-04-18T03:17:02.412Z,89.73
2024-04-18T03:19:31.319Z,89.73
2024-04-18T03:22:02.563Z,89.72
2024-04-18T03:24:29.338Z,89.73
2024-04-18T03:26:58.524Z,89.44
2024-04-18T03:29:28.205Z,89.85
2024-04-18T03:31:54.907Z,89.60
2024-04-18T03:34:21.553Z,90.03
2024-04-18T03:36:50.817Z,89.51
2024-04-18T03:39:17.579Z,89.87
2024-04-18T03:41:49.055Z,90.22
2024-04-18T03:44:23.110Z,89.94
2024-04-18T03:46:49.733Z,89.93
2024-04-18T03:49:16.425Z,89.73
2024-04-18T03:51:43.072Z,89.81
2024-04-18T03:54:09.755Z,89.65
2024-04-18T03:56:36.686Z,90.18
2024-04-18T03:59:03.362Z,90.05
2024-04-18T04:01:31.006Z,89.93
2024-04-18T04:03:58.262Z,90.10
2024-04-18T04:06:25.075Z,89.92
2024-04-18T04:08:54.188Z,90.02
2024-04-18T04:11:21.611Z,90.05
2024-04-18T04:13:48.291Z,89.94
2024-04-18T04:16:17.208Z,89.83
2024-04-18T04:18:44.623Z,90.25
2024-04-18T04:21:11.309Z,90.05
2024-04-18T04:23:38.263Z,90.05
2024-04-18T04:26:05.080Z,90.00
2024-04-18T04:28:31.718Z,90.16
2024-04-18T04:31:03.113Z,90.18
2024-04-18T04:33:35.047Z,90.11
2024-04-18T04:36:01.682Z,90.11
2024-04-18T04:38:30.478Z,89.81
2024-04-18T04:40:57.196Z,90.01
2024-04-18T04:43:28.417Z,89.71
2024-04-18T04:45:58.833Z,89.71
2024-04-18T04:48:25.732Z,89.79
2024-04-18T04:50:58.505Z,89.82
2024-04-18T04:53:25.769Z,90.02
2024-04-18T04:55:52.453Z,89.83
2024-04-18T04:58:21.472Z,89.98
2024-04-18T05:00:50.639Z,89.91
2024-04-18T05:03:17.392Z,90.29
2024-04-18T05:05:44.280Z,90.21
2024-04-18T05:08:11.149Z,89.99
2024-04-18T05:10:47.309Z,90.09
2024-04-18T05:13:15.451Z,90.14
2024-04-18T05:15:42.491Z,90.18
2024-04-18T05:18:12.651Z,90.08
2024-04-18T05:20:39.670Z,89.88
2024-04-18T05:23:08.373Z,90.11
2024-04-18T05:25:37.482Z,90.04
2024-04-18T05:28:11.797Z,90.08
2024-04-18T05:31:02.070Z,90.04
2024-04-18T05:33:29.530Z,90.18
2024-04-18T05:35:56.321Z,90.23
2024-04-18T05:38:23.218Z,90.27
2024-04-18T05:40:53.375Z,90.49
2024-04-18T05:43:20.818Z,90.36
2024-04-18T05:45:51.045Z,90.63
2024-04-18T05:48:21.559Z,90.54
2024-04-18T05:50:48.284Z,90.60
2024-04-18T05:53:17.959Z,90.56
2024-04-18T05:55:44.770Z,90.85
2024-04-18T05:58:11.400Z,90.88
2024-04-18T06:00:40.393Z,91.02
2024-04-18T06:03:07.284Z,90.93
2024-04-18T06:05:34.410Z,91.01
2024-04-18T06:08:01.075Z,91.05
2024-04-18T06:10:30.752Z,90.95
2024-04-18T06:12:59.922Z,91.01
2024-04-18T06:15:29.090Z,90.94
2024-04-18T06:17:58.101Z,91.03
2024-04-18T06:20:30.829Z,91.15
2024-04-18T06:22:59.932Z,90.99
2024-04-18T06:25:27.287Z,91.05
2024-04-18T06:27:53.959Z,90.95
2024-04-18T06:30:23.027Z,90.90
2024-04-18T06:32:49.968Z,90.87
2024-04-18T06:35:18.903Z,90.85
2024-04-18T06:37:45.699Z,90.74
2024-04-18T06:40:17.022Z,90.93
2024-04-18T06:42:43.736Z,90.62
2024-04-18T06:45:10.477Z,90.42
2024-04-18T06:47:37.187Z,90.33
2024-04-18T06:50:03.975Z,90.11
2024-04-18T06:52:38.174Z,89.89
2024-04-18T06:55:07.336Z,89.52
2024-04-18T06:57:34.021Z,89.43
2024-04-18T07:00:03.153Z,89.20
2024-04-18T07:02:29.946Z,89.27
2024-04-18T07:04:56.651Z,88.91
2024-04-18T07:07:26.496Z,88.74
2024-04-18T07:09:53.144Z,88.41
2024-04-18T07:12:19.865Z,88.68
2024-04-18T07:14:46.574Z,88.35
2024-04-18T07:17:13.277Z,87.66
2024-04-18T07:19:40.033Z,87.52
2024-04-18T07:22:06.702Z,87.62
2024-04-18T07:24:35.753Z,87.33
2024-04-18T07:27:02.875Z,86.62
2024-04-18T07:29:29.584Z,86.63
2024-04-18T07:31:58.709Z,86.56
2024-04-18T07:34:25.526Z,86.11
2024-04-18T07:36:54.578Z,85.93
2024-04-18T07:39:21.422Z,85.05
2024-04-18T07:41:48.212Z,84.64
2024-04-18T07:44:18.744Z,83.93
2024-04-18T07:46:49.470Z,82.67
2024-04-18T07:49:16.136Z,82.62
2024-04-18T07:51:46.049Z,82.09
2024-04-18T07:54:12.926Z,82.51
2024-04-18T07:56:39.978Z,81.80
2024-04-18T07:59:10.436Z,81.83
2024-04-18T08:01:39.279Z,81.58
2024-04-18T08:04:34.355Z,81.56
2024-04-18T08:07:02.572Z,80.71
2024-04-18T08:12:23.888Z,78.67
2024-04-18T08:14:57.856Z,78.63
2024-04-18T08:17:27.763Z,77.97
2024-04-18T08:19:54.434Z,77.54
2024-04-18T08:22:23.442Z,77.51
2024-04-18T08:24:51.070Z,77.17
2024-04-18T08:27:17.859Z,76.54
2024-04-18T08:29:44.505Z,75.82
2024-04-18T08:32:11.685Z,75.86
2024-04-18T08:34:41.114Z,75.32
2024-04-18T08:37:09.752Z,75.02
2024-04-18T08:39:38.750Z,74.37
2024-04-18T08:42:08.026Z,73.75
2024-04-18T08:44:34.688Z,72.86
2024-04-18T08:47:02.331Z,73.40
2024-04-18T08:49:32.882Z,72.21
2024-04-18T08:52:00.200Z,71.44
2024-04-18T08:54:31.129Z,71.03
2024-04-18T08:57:01.163Z,70.15
2024-04-18T08:59:29.269Z,69.16
2024-04-18T09:01:56.226Z,69.50
2024-04-18T09:04:27.696Z,68.07
2024-04-18T09:06:54.341Z,67.14
2024-04-18T09:09:23.681Z,67.13
2024-04-18T09:11:50.393Z,65.65
2024-04-18T09:14:19.359Z,65.84
2024-04-18T09:16:50.711Z,65.06
2024-04-18T09:19:19.356Z,66.90
2024-04-18T09:21:48.555Z,65.72
2024-04-18T09:24:17.507Z,64.84
2024-04-18T09:26:44.289Z,63.82
2024-04-18T09:29:10.927Z,65.49
2024-04-18T09:31:43.517Z,65.49
2024-04-18T09:34:15.812Z,62.94
2024-04-18T09:36:46.328Z,63.21
2024-04-18T09:39:29.510Z,61.49
2024-04-18T09:42:11.350Z,60.26
2024-04-18T09:44:46.432Z,57.88
2024-04-18T09:47:14.818Z,57.27
2024-04-18T09:49:42.425Z,58.57
2024-04-18T09:52:10.430Z,58.06
2024-04-18T09:54:38.578Z,57.49
2024-04-18T09:57:06.608Z,55.21
2024-04-18T09:59:36.315Z,54.81
2024-04-18T10:02:06.098Z,55.64
2024-04-18T10:04:35.780Z,52.92
2024-04-18T10:07:09.195Z,55.74
2024-04-18T10:09:42.211Z,55.51
2024-04-18T10:12:13.147Z,53.52
2024-04-18T10:14:39.862Z,54.15
2024-04-18T10:17:08.818Z,51.39
2024-04-18T10:19:35.598Z,50.31
2024-04-18T10:22:16.664Z,52.98
2024-04-18T10:24:51.917Z,51.92
2024-04-18T10:27:21.693Z,51.47
2024-04-18T10:30:01.136Z,51.54
2024-04-18T10:32:32.471Z,49.84
2024-04-18T10:35:00.402Z,51.11
2024-04-18T10:37:29.536Z,53.51
2024-04-18T10:40:00.551Z,52.83
2024-04-18T10:42:27.434Z,52.00
2024-04-18T10:44:56.605Z,50.54
2024-04-18T10:47:23.645Z,51.18
2024-04-18T10:49:50.766Z,50.78
2024-04-18T10:52:20.392Z,51.92
2024-04-18T10:54:50.029Z,51.97
2024-04-18T10:57:16.808Z,51.48
2024-04-18T10:59:48.423Z,50.78
2024-04-18T11:02:15.617Z,50.87
2024-04-18T11:04:42.840Z,51.94
2024-04-18T11:07:09.830Z,51.12
2024-04-18T11:09:40.431Z,51.59
2024-04-18T11:12:07.955Z,51.79
2024-04-18T11:14:36.897Z,53.27
2024-04-18T11:17:03.686Z,52.67
2024-04-18T11:19:33.501Z,52.23
2024-04-18T11:22:06.828Z,52.14
2024-04-18T11:24:34.469Z,51.85
2024-04-18T11:27:08.891Z,51.61
2024-04-18T11:29:36.507Z,52.02
2024-04-18T11:32:07.299Z,52.53
2024-04-18T11:34:36.996Z,52.80
2024-04-18T11:37:04.754Z,54.00
2024-04-18T11:39:33.986Z,52.66
2024-04-18T11:42:03.371Z,51.84
2024-04-18T11:44:33.954Z,53.24
2024-04-18T11:47:00.958Z,53.29
2024-04-18T11:49:27.781Z,54.45
2024-04-18T11:51:57.905Z,53.29
2024-04-18T11:54:27.737Z,52.98
2024-04-18T11:56:55.237Z,52.36
2024-04-18T11:59:22.454Z,50.62
2024-04-18T12:01:49.158Z,50.30
2024-04-18T12:04:18.250Z,48.90
2024-04-18T12:06:46.761Z,49.04
2024-04-18T12:09:13.455Z,48.37
2024-04-18T12:11:40.152Z,47.86
2024-04-18T12:14:08.661Z,47.80
2024-04-18T12:16:38.204Z,49.07
2024-04-18T12:19:04.860Z,49.34
2024-04-18T12:21:31.634Z,50.36
2024-04-18T12:23:58.322Z,51.16
2024-04-18T12:26:27.485Z,50.98
2024-04-18T12:28:56.468Z,51.91
2024-04-18T12:31:26.166Z,51.62
2024-04-18T12:33:52.990Z,51.92
2024-04-18T12:36:23.332Z,52.83
2024-04-18T12:38:50.120Z,52.77
2024-04-18T12:41:16.793Z,53.22
2024-04-18T12:43:45.882Z,52.44
2024-04-18T12:46:22.093Z,51.79
2024-04-18T12:48:52.052Z,50.86
2024-04-18T12:51:21.214Z,50.05
2024-04-18T12:53:47.865Z,48.93
2024-04-18T12:56:20.862Z,49.81
2024-04-18T12:58:47.570Z,52.16
2024-04-18T13:01:14.641Z,52.62
2024-04-18T13:03:45.375Z,53.19
2024-04-18T13:06:12.452Z,53.52
2024-04-18T13:08:41.354Z,54.21
2024-04-18T13:11:10.436Z,55.00
2024-04-18T13:13:37.183Z,55.40
2024-04-18T13:16:06.674Z,56.02
2024-04-18T13:18:33.420Z,56.96
2024-04-18T13:21:00.210Z,56.99
2024-04-18T13:23:26.946Z,56.70
2024-04-18T13:25:54.748Z,57.52
2024-04-18T13:28:26.040Z,57.47
2024-04-18T13:30:52.770Z,57.61
2024-04-18T13:33:19.611Z,57.42
2024-04-18T13:35:46.670Z,56.93
2024-04-18T13:38:13.286Z,56.38
2024-04-18T13:40:42.199Z,57.26
2024-04-18T13:43:11.323Z,56.78
2024-04-18T13:45:38.210Z,54.92
2024-04-18T13:48:05.647Z,54.83
2024-04-18T13:50:34.895Z,54.58
2024-04-18T13:53:01.491Z,53.65
2024-04-18T13:55:28.601Z,52.76
2024-04-18T13:57:57.956Z,51.56
2024-04-18T14:00:27.778Z,51.90
2024-04-18T14:02:54.556Z,51.96
2024-04-18T14:05:21.865Z,52.10
2024-04-18T14:07:50.769Z,52.37
2024-04-18T14:10:17.608Z,52.39
2024-04-18T14:12:44.276Z,51.81
2024-04-18T14:15:36.884Z,50.85
2024-04-18T14:18:23.575Z,51.93
2024-04-18T14:20:55.019Z,52.92
2024-04-18T14:23:21.669Z,53.11
2024-04-18T14:25:48.263Z,52.84
2024-04-18T14:28:24.194Z,53.21
2024-04-18T14:31:03.145Z,53.88
2024-04-18T14:33:32.418Z,53.76
2024-04-18T14:36:01.544Z,53.56
2024-04-18T14:38:30.579Z,53.69
2024-04-18T14:41:06.176Z,54.82
2024-04-18T14:43:38.429Z,53.73
2024-04-18T14:46:05.203Z,53.88
2024-04-18T14:48:34.651Z,53.79
2024-04-18T14:51:06.289Z,53.82
2024-04-18T14:53:35.290Z,53.83
2024-04-18T14:56:01.971Z,53.54
2024-04-18T14:58:30.897Z,51.84
2024-04-18T15:00:57.673Z,52.07
2024-04-18T15:03:29.288Z,53.03
2024-04-18T15:05:57.465Z,51.85
2024-04-18T15:08:24.512Z,52.97
2024-04-18T15:10:51.622Z,51.45
2024-04-18T15:13:18.342Z,50.19
2024-04-18T15:15:47.563Z,49.41
2024-04-18T15:18:15.008Z,50.26
2024-04-18T15:20:41.963Z,51.18
2024-04-18T15:23:09.219Z,50.69
2024-04-18T15:25:38.361Z,49.90
2024-04-18T15:28:05.835Z,49.89
2024-04-18T15:30:35.136Z,49.64
2024-04-18T15:33:04.453Z,49.42
2024-04-18T15:35:31.372Z,49.34
2024-04-18T15:37:58.074Z,48.68
2024-04-18T15:40:24.888Z,47.68
2024-04-18T15:42:54.059Z,47.98
2024-04-18T15:45:20.896Z,48.94
2024-04-18T15:47:52.220Z,48.56
2024-04-18T15:50:24.570Z,48.55
2024-04-18T15:52:51.330Z,47.67
2024-04-18T15:55:21.894Z,47.88
2024-04-18T15:57:51.748Z,48.06
2024-04-18T16:00:18.776Z,48.56
2024-04-18T16:02:51.597Z,48.68
2024-04-18T16:05:22.322Z,48.53
2024-04-18T16:07:51.205Z,48.70
2024-04-18T16:10:17.817Z,49.56
2024-04-18T16:12:44.984Z,49.82
2024-04-18T16:15:11.635Z,50.00
2024-04-18T16:17:38.338Z,51.23
2024-04-18T16:20:05.323Z,50.31
2024-04-18T16:22:32.193Z,51.08
2024-04-18T16:24:58.845Z,51.27
2024-04-18T16:27:28.018Z,50.74
2024-04-18T16:29:57.158Z,51.91
2024-04-18T16:32:26.068Z,50.91
2024-04-18T16:34:55.092Z,51.60
2024-04-18T16:37:23.673Z,51.70
2024-04-18T16:39:51.436Z,50.60
2024-04-18T16:42:18.143Z,50.79
2024-04-18T16:44:44.863Z,51.11
2024-04-18T16:47:11.579Z,50.94
2024-04-18T16:49:43.157Z,51.58
2024-04-18T16:52:10.949Z,51.18
2024-04-18T16:54:45.654Z,51.41
2024-04-18T16:57:12.358Z,52.14
2024-04-18T16:59:41.255Z,51.68
2024-04-18T17:02:07.947Z,51.70
2024-04-18T17:04:36.388Z,51.91
2024-04-18T17:07:05.539Z,52.38
2024-04-18T17:09:34.726Z,53.37
2024-04-18T17:12:01.912Z,53.63
2024-04-18T17:14:28.688Z,53.31
2024-04-18T17:16:55.366Z,53.99
2024-04-18T17:19:25.102Z,53.76
2024-04-18T17:21:54.373Z,54.01
2024-04-18T17:24:28.404Z,54.46
2024-04-18T17:26:55.078Z,54.57
2024-04-18T17:29:21.760Z,54.67
2024-04-18T17:31:48.728Z,54.48
2024-04-18T17:34:15.527Z,55.26
2024-04-18T17:36:42.310Z,55.81
2024-04-18T17:39:09.453Z,55.97
2024-04-18T17:41:36.348Z,55.83
2024-04-18T17:44:03.205Z,56.73
2024-04-18T17:46:29.909Z,57.15
2024-04-18T17:48:59.097Z,56.86
2024-04-18T17:51:30.590Z,57.30
2024-04-18T17:53:57.235Z,57.94
2024-04-18T17:56:26.838Z,58.76
2024-04-18T17:58:57.042Z,58.36
2024-04-18T18:01:23.736Z,58.91
2024-04-18T18:03:52.768Z,59.46
2024-04-18T18:06:19.547Z,59.39
2024-04-18T18:08:46.211Z,60.19
2024-04-18T18:11:12.907Z,60.40
2024-04-18T18:13:42.581Z,61.37
2024-04-18T18:16:09.259Z,61.29
2024-04-18T18:18:40.083Z,61.36
2024-04-18T18:21:09.412Z,62.04
2024-04-18T18:23:40.931Z,62.30
2024-04-18T18:26:07.622Z,62.61
2024-04-18T18:28:35.166Z,62.55
2024-04-18T18:31:01.886Z,63.07
2024-04-18T18:33:33.451Z,63.05
2024-04-18T18:36:00.185Z,63.44
2024-04-18T18:38:26.858Z,62.98
2024-04-18T18:40:53.499Z,63.43
2024-04-18T18:43:22.458Z,63.62
2024-04-18T18:45:52.382Z,63.32
2024-04-18T18:48:23.923Z,63.35
2024-04-18T18:50:52.852Z,63.35
2024-04-18T18:53:19.506Z,63.39
2024-04-18T18:55:47.153Z,63.49
2024-04-18T18:58:13.867Z,63.46
2024-04-18T19:00:43.055Z,63.65
2024-04-18T19:03:10.360Z,63.31
2024-04-18T19:05:50.770Z,63.95
2024-04-18T19:08:22.121Z,63.47
2024-04-18T19:10:48.780Z,63.96
2024-04-18T19:13:15.412Z,63.95
2024-04-18T19:15:43.981Z,64.07
2024-04-18T19:18:13.113Z,64.12
2024-04-18T19:20:42.128Z,64.03
2024-04-18T19:23:10.934Z,64.39
2024-04-18T19:25:39.961Z,64.89
2024-04-18T19:28:08.362Z,64.65
2024-04-18T19:30:39.750Z,65.35
2024-04-18T19:33:06.857Z,65.24
2024-04-18T19:35:36.150Z,65.54
2024-04-18T19:38:05.006Z,65.66
2024-04-18T19:40:31.935Z,66.02
2024-04-18T19:42:58.646Z,66.10
2024-04-18T19:45:27.924Z,66.06
2024-04-18T19:47:54.587Z,66.10
2024-04-18T19:50:23.630Z,66.23
2024-04-18T19:52:50.392Z,66.72
2024-04-18T19:55:17.351Z,66.65
2024-04-18T19:57:46.595Z,66.46
2024-04-18T20:00:16.838Z,66.47
2024-04-18T20:02:44.783Z,66.46
2024-04-18T20:05:11.372Z,65.95
2024-04-18T20:07:38.045Z,66.46
2024-04-18T20:10:07.468Z,66.49
2024-04-18T20:12:34.127Z,66.81
2024-04-18T20:15:03.198Z,66.81
2024-04-18T20:17:29.884Z,67.13
2024-04-18T20:19:56.623Z,66.67
2024-04-18T20:22:25.728Z,67.21
2024-04-18T20:24:52.459Z,67.44
2024-04-18T20:27:19.731Z,67.89
2024-04-18T20:29:49.111Z,67.85
2024-04-18T20:32:21.012Z,68.00
2024-04-18T20:34:47.828Z,68.07
2024-04-18T20:37:16.830Z,67.99
2024-04-18T20:39:43.684Z,68.50
2024-04-18T20:42:14.001Z,68.50
2024-04-18T20:44:42.959Z,68.62
2024-04-18T20:47:12.148Z,68.63
2024-04-18T20:49:40.926Z,69.15
2024-04-18T20:52:07.562Z,69.32
2024-04-18T20:54:36.631Z,69.68
2024-04-18T20:57:03.452Z,69.89
2024-04-18T20:59:30.393Z,69.73
2024-04-18T21:01:58.123Z,69.86
2024-04-18T21:04:24.827Z,69.76
2024-04-18T21:06:51.641Z,70.28
2024-04-18T21:09:20.762Z,69.85
2024-04-18T21:11:47.421Z,69.81
2024-04-18T21:14:16.268Z,69.89
2024-04-18T21:16:44.240Z,69.71
2024-04-18T21:19:16.032Z,69.86
2024-04-18T21:21:44.952Z,69.93
2024-04-18T21:24:11.810Z,70.04
2024-04-18T21:26:38.479Z,69.93
2024-04-18T21:29:07.438Z,69.90
2024-04-18T21:31:36.429Z,70.02
2024-04-18T21:34:07.445Z,70.45
2024-04-18T21:36:36.904Z,70.51
2024-04-18T21:39:07.103Z,70.46
2024-04-18T21:41:39.495Z,70.68
2024-04-18T21:44:06.485Z,70.40
2024-04-18T21:46:35.919Z,70.31
2024-04-18T21:49:02.709Z,70.86
2024-04-18T21:51:29.531Z,70.83
2024-04-18T21:53:56.224Z,70.48
2024-04-18T21:56:25.124Z,70.65
2024-04-18T21:58:53.360Z,70.50
2024-04-18T22:01:22.900Z,71.05
2024-04-18T22:03:51.573Z,70.91
2024-04-18T22:06:22.839Z,71.29
2024-04-18T22:08:54.696Z,71.20
2024-04-18T22:11:21.286Z,71.71
2024-04-18T22:13:50.514Z,71.52
2024-04-18T22:16:17.148Z,71.90
2024-04-18T22:18:43.855Z,72.27
2024-04-18T22:21:10.577Z,72.67
2024-04-18T22:23:37.222Z,72.97
2024-04-18T22:26:04.513Z,73.39
2024-04-18T22:28:31.099Z,73.86
2024-04-18T22:31:00.263Z,75.00
2024-04-18T22:33:31.980Z,75.51
2024-04-18T22:35:58.857Z,75.99
2024-04-18T22:38:27.920Z,76.43
2024-04-18T22:40:56.757Z,76.88
2024-04-18T22:43:23.491Z,77.42
2024-04-18T22:45:55.023Z,78.25
2024-04-18T22:48:24.197Z,78.64
2024-04-18T22:50:55.635Z,79.06
2024-04-18T22:53:22.260Z,79.52
2024-04-18T22:55:55.237Z,79.90
2024-04-18T22:58:21.990Z,80.18
2024-04-18T23:00:49.141Z,80.50
2024-04-18T23:03:20.553Z,80.83
2024-04-18T23:05:50.197Z,81.05
2024-04-18T23:08:19.271Z,81.60
2024-04-18T23:10:47.878Z,81.48
2024-04-18T23:13:15.253Z,81.73
2024-04-18T23:15:42.029Z,82.15
2024-04-18T23:18:13.478Z,81.89
2024-04-18T23:20:40.246Z,82.37
2024-04-18T23:23:06.859Z,83.05
2024-04-18T23:25:38.004Z,83.44
2024-04-18T23:28:04.934Z,83.56
2024-04-18T23:30:31.684Z,83.96
2024-04-18T23:33:00.863Z,83.92
2024-04-18T23:35:27.469Z,84.60
2024-04-18T23:37:56.366Z,84.86
2024-04-18T23:40:22.979Z,84.77
2024-04-18T23:42:49.668Z,84.60
2024-04-18T23:45:16.469Z,84.94
2024-04-18T23:47:45.558Z,85.26
2024-04-18T23:50:14.497Z,85.41
2024-04-18T23:52:41.110Z,85.49
2024-04-18T23:55:07.706Z,85.96
2024-04-18T23:57:34.373Z,85.89
